LFVP

Saint-Pierre Airport

Airport
ICAO code
LFVP
IATA Code
FSP
Summary
ICAO Region
NAT
ICAO Territory
Location

Saint-Pierre et Michelon, North Atlantic,

Serving
Saint-Pierre
Elevation
27 ft
Coordinates
46° 45' 45" N , 56° 10' 33" W
KCC
Metar
Observation
LFVP 280530Z AUTO 31007KT 250V340 9999 FEW018 02/00 Q1002
Station
Saint-Pierre
Date/Time
2022-11-28 05:30:00
Wind direction
310°
Wind speed
07 kts
Lowest cloud amount
few clouds
Temperature
2°C
Dew point
0°C
Humidity
86%
QNH
1002 hPa
Weather condition
n/a

Description

Airport serving the island of St Pierre, part of the French territory St Pierre et Michelon off the eastern coast of Canada near St Johns

Climatology

Humid Continental climate (Köppen climate classification Dfb) - Variable weather patterns and a large seasonal temperature variance. Summers are often warm and humid with frequent thunderstorms and winters can be very cold with frequent snowfall and persistent snow cover.

The separate article climate Newfoundland contains more detail on the climate of Newfoundland and associated weather phenomena.

Runways

Designator Length Width Surface Rops
8/26 1798 46 ASP No/No

Airport map

Aerial View

SKYbrary Partners:

Safety knowledge contributed by: